Time;durP1;ratioP1;P1;durP2;ratioP2;P2;SDS_P1;SDS_P2;PMS_P1;PMS_P2;Temp;Humidity;BMP_temperature;BMP_pressure;BME280_temperature;BME280_humidity;BME280_pressure;Samples;Min_cycle;Max_cycle;Signal;HPM_P1;HPM_P2
2021/12/06 00:01:49;;;;;;;18.73;10.02;;;;;;;4.11;100.00;95489.03;5027909;28;20459;-52
2021/12/06 00:04:22;;;;;;;13.82;9.13;;;;;;;4.23;100.00;95489.78;5024255;28;20516;-50
2021/12/06 00:06:55;;;;;;;11.65;8.82;;;;;;;4.13;100.00;95494.13;5024264;28;20045;-47
2021/12/06 00:09:27;;;;;;;14.73;8.90;;;;;;;4.33;100.00;95493.28;5024910;28;20750;-47
2021/12/06 00:12:16;;;;;;;13.18;9.40;;;;;;;4.26;100.00;95500.78;5032678;28;20045;-53
2021/12/06 00:15:05;;;;;;;13.48;9.25;;;;;;;4.03;100.00;95502.75;5030290;28;20132;-48
2021/12/06 00:17:54;;;;;;;10.60;8.15;;;;;;;4.02;100.00;95508.88;4985287;28;20419;-50
2021/12/06 00:20:22;;;;;;;12.27;8.60;;;;;;;4.27;100.00;95506.84;5021788;28;20037;-48
2021/12/06 00:22:52;;;;;;;12.57;8.40;;;;;;;4.31;100.00;95515.25;5022306;28;20049;-49
2021/12/06 00:25:22;;;;;;;12.52;8.38;;;;;;;4.04;100.00;95516.59;5022074;28;20041;-51
2021/12/06 00:27:50;;;;;;;13.68;9.27;;;;;;;4.05;100.00;95516.47;5025188;28;20050;-50
2021/12/06 00:30:19;;;;;;;10.80;8.25;;;;;;;4.28;100.00;95514.53;5027069;28;20049;-48
2021/12/06 00:32:48;;;;;;;11.35;8.85;;;;;;;4.39;100.00;95515.41;5021707;28;20059;-51
2021/12/06 00:35:22;;;;;;;12.40;8.80;;;;;;;4.46;100.00;95512.16;5022308;28;20124;-49
2021/12/06 00:37:58;;;;;;;13.50;9.60;;;;;;;4.62;100.00;95513.47;5020787;28;20042;-51
2021/12/06 00:40:29;;;;;;;11.82;8.70;;;;;;;4.57;100.00;95508.63;5025184;28;20408;-46
2021/12/06 00:42:58;;;;;;;11.82;8.63;;;;;;;4.55;100.00;95515.78;5024841;28;20037;-50
2021/12/06 00:45:27;;;;;;;11.70;8.45;;;;;;;4.62;100.00;95511.69;5028870;28;20045;-47
2021/12/06 00:48:15;;;;;;;11.20;8.93;;;;;;;4.39;100.00;95518.84;5028514;28;20064;-50
2021/12/06 00:51:04;;;;;;;11.88;8.50;;;;;;;4.61;100.00;95527.47;5028696;28;20064;-51
2021/12/06 00:53:53;;;;;;;10.90;7.78;;;;;;;4.47;100.00;95529.50;5026905;28;20049;-46
2021/12/06 00:56:42;;;;;;;11.20;8.65;;;;;;;3.92;100.00;95536.72;5026946;28;20049;-47
2021/12/06 00:59:30;;;;;;;12.63;8.15;;;;;;;4.36;100.00;95536.56;5029323;28;20511;-49
2021/12/06 01:02:18;;;;;;;11.32;8.13;;;;;;;4.55;100.00;95528.00;4982932;28;20041;-47
2021/12/06 01:04:49;;;;;;;12.70;8.60;;;;;;;4.79;100.00;95536.34;5022045;28;20065;-48
2021/12/06 01:07:17;;;;;;;11.30;8.88;;;;;;;4.54;100.00;95535.00;5024644;28;20072;-49
2021/12/06 01:09:47;;;;;;;10.70;8.55;;;;;;;3.95;100.00;95541.66;5029581;28;20486;-52
2021/12/06 01:12:36;;;;;;;11.85;8.52;;;;;;;4.52;100.00;95545.56;4984349;28;20052;-47
2021/12/06 01:15:06;;;;;;;12.82;8.68;;;;;;;4.83;100.00;95548.19;5025890;28;20458;-49
2021/12/06 01:17:55;;;;;;;12.13;8.95;;;;;;;4.94;100.00;95558.53;5027322;28;20057;-48
2021/12/06 01:20:51;;;;;;;10.57;8.25;;;;;;;4.98;100.00;95556.47;5028476;28;20049;-46
2021/12/06 01:23:51;;;;;;;10.35;8.23;;;;;;;5.25;100.00;95550.63;5023662;28;20049;-51
2021/12/06 01:27:06;;;;;;;12.18;8.38;;;;;;;5.46;100.00;95561.81;4993522;28;20057;-49
2021/12/06 01:30:20;;;;;;;10.52;8.23;;;;;;;5.26;100.00;95565.34;4998242;28;20064;-51
2021/12/06 01:33:35;;;;;;;12.05;7.70;;;;;;;4.97;100.00;95570.50;5028654;28;20099;-50
2021/12/06 01:39:29;;;;;;;9.93;7.95;;;;;;;5.26;100.00;95570.59;5025906;28;20466;-48
2021/12/06 01:42:01;;;;;;;10.38;8.73;;;;;;;5.22;100.00;95562.19;5021201;28;20144;-48
2021/12/06 01:44:32;;;;;;;10.48;8.65;;;;;;;5.22;100.00;95569.19;5021802;28;20705;-49
2021/12/06 01:47:05;;;;;;;12.45;9.18;;;;;;;5.24;100.00;95570.72;5023914;28;20103;-46
2021/12/06 01:49:34;;;;;;;;;;;;;;;4.68;100.00;95571.22;5021852;28;20080;-51
2021/12/06 01:52:06;;;;;;;12.40;9.50;;;;;;;4.87;100.00;95573.06;5024226;28;19975;-50
2021/12/06 01:54:56;;;;;;;12.48;9.75;;;;;;;5.00;100.00;95581.53;5026575;28;20052;-49
2021/12/06 01:57:29;;;;;;;14.63;10.15;;;;;;;5.38;100.00;95577.38;5004055;28;20073;-52
2021/12/06 01:59:58;;;;;;;20.23;10.40;;;;;;;5.52;100.00;95572.72;5020515;28;20130;-52
2021/12/06 02:02:28;;;;;;;18.70;10.80;;;;;;;5.65;100.00;95571.50;5011462;28;20049;-48
2021/12/06 02:04:57;;;;;;;17.63;11.48;;;;;;;5.69;100.00;95580.72;5022825;28;20397;-50
2021/12/06 02:07:27;;;;;;;14.52;10.10;;;;;;;5.65;100.00;95578.50;5024271;28;20041;-51
2021/12/06 02:09:57;;;;;;;15.82;10.52;;;;;;;5.48;100.00;95583.44;5029164;28;20046;-50
2021/12/06 02:12:29;;;;;;;14.55;10.73;;;;;;;5.22;100.00;95577.03;5023334;28;20532;-46
2021/12/06 02:15:04;;;;;;;15.35;10.05;;;;;;;5.24;100.00;95577.75;5019218;28;20026;-50
2021/12/06 02:17:37;;;;;;;15.93;11.10;;;;;;;5.39;100.00;95581.63;5019537;28;20045;-48
2021/12/06 02:20:09;;;;;;;16.25;10.48;;;;;;;5.27;100.00;95581.88;5026357;28;20040;-48
2021/12/06 02:22:39;;;;;;;18.48;10.73;;;;;;;5.24;100.00;95577.75;5026130;28;20052;-48
2021/12/06 02:25:18;;;;;;;14.50;10.95;;;;;;;5.06;100.00;95589.78;5039943;28;20033;-50
2021/12/06 02:27:49;;;;;;;15.45;11.27;;;;;;;5.08;100.00;95585.25;5030509;28;20037;-46
2021/12/06 02:30:19;;;;;;;21.55;11.93;;;;;;;4.91;100.00;95591.94;5023217;28;20533;-48
2021/12/06 02:32:49;;;;;;;21.50;12.70;;;;;;;5.11;100.00;95577.97;5026550;28;20051;-48
2021/12/06 02:35:20;;;;;;;23.75;13.98;;;;;;;5.24;100.00;95570.72;5027717;28;20029;-49
2021/12/06 02:37:51;;;;;;;23.45;14.02;;;;;;;5.21;100.00;95573.59;5029236;28;20043;-50
2021/12/06 02:40:22;;;;;;;27.15;14.35;;;;;;;5.09;100.00;95586.91;5020917;28;20059;-48
2021/12/06 02:42:51;;;;;;;26.38;13.55;;;;;;;5.08;100.00;95590.47;5029578;28;20393;-46
2021/12/06 02:45:24;;;;;;;28.25;13.90;;;;;;;5.30;100.00;95592.06;5027036;28;20037;-47
2021/12/06 02:47:54;;;;;;;30.25;13.90;;;;;;;5.26;100.00;95594.09;5024275;28;20044;-47
2021/12/06 02:50:26;;;;;;;25.92;14.52;;;;;;;5.34;100.00;95591.66;5021592;28;20033;-48
2021/12/06 02:52:56;;;;;;;29.42;15.23;;;;;;;5.38;100.00;95606.13;5024167;28;20051;-49
2021/12/06 02:55:31;;;;;;;42.53;14.75;;;;;;;5.17;100.00;95608.00;5027173;28;20037;-47
2021/12/06 02:58:12;;;;;;;25.00;16.38;;;;;;;5.06;100.00;95608.91;5028645;28;20510;-47
2021/12/06 03:00:42;;;;;;;33.95;14.75;;;;;;;5.32;100.00;95611.88;5028474;28;20782;-51
2021/12/06 03:03:11;;;;;;;56.20;15.70;;;;;;;5.22;100.00;95616.25;5025817;28;20037;-48
2021/12/06 03:05:40;;;;;;;48.72;15.77;;;;;;;5.32;100.00;95621.50;5025950;28;20044;-46
2021/12/06 03:08:10;;;;;;;34.63;15.20;;;;;;;5.41;100.00;95615.50;4986157;28;20797;-49
2021/12/06 03:10:41;;;;;;;77.80;16.63;;;;;;;4.58;100.00;95629.56;5016565;28;20037;-47
2021/12/06 03:13:09;;;;;;;74.63;17.13;;;;;;;4.67;100.00;95628.78;5026272;28;20073;-48
2021/12/06 03:15:38;;;;;;;84.70;17.42;;;;;;;4.50;100.00;95630.19;5028202;28;20041;-48
2021/12/06 03:18:06;;;;;;;82.13;16.60;;;;;;;5.19;100.00;95626.97;5026023;28;20046;-48
2021/12/06 03:20:35;;;;;;;81.03;17.70;;;;;;;5.02;100.00;95630.19;5025581;28;20037;-53
2021/12/06 03:23:04;;;;;;;78.95;18.02;;;;;;;5.27;100.00;95632.38;5024097;28;20057;-46
2021/12/06 03:25:34;;;;;;;50.25;15.82;;;;;;;5.43;100.00;95637.09;5026751;28;20030;-54
2021/12/06 03:28:03;;;;;;;92.13;19.00;;;;;;;4.05;100.00;95636.47;5025398;28;20053;-47
2021/12/06 03:30:31;;;;;;;90.43;17.65;;;;;;;4.03;100.00;95648.00;5025536;28;20065;-47
2021/12/06 03:33:00;;;;;;;96.70;17.80;;;;;;;4.50;100.00;95645.84;5019894;28;20147;-52
2021/12/06 03:35:29;;;;;;;57.92;17.75;;;;;;;3.91;100.00;95655.00;5019833;28;20352;-45
2021/12/06 03:37:57;;;;;;;44.25;16.05;;;;;;;3.99;100.00;95646.56;5023372;28;20041;-50
2021/12/06 03:40:26;;;;;;;71.18;17.23;;;;;;;3.76;100.00;95645.81;5010032;28;20041;-47
2021/12/06 03:42:56;;;;;;;89.32;17.80;;;;;;;3.96;100.00;95663.31;5024030;28;20048;-47
2021/12/06 03:45:25;;;;;;;80.28;17.33;;;;;;;4.62;100.00;95655.28;5021820;28;20050;-52
2021/12/06 03:47:54;;;;;;;67.78;17.00;;;;;;;4.33;100.00;95649.03;5019692;28;20049;-53
2021/12/06 03:50:22;;;;;;;50.33;17.05;;;;;;;4.96;100.00;95657.69;5020142;28;20030;-52
2021/12/06 03:52:51;;;;;;;69.20;17.13;;;;;;;4.88;100.00;95666.16;5018958;28;20048;-53
2021/12/06 03:55:20;;;;;;;43.03;16.98;;;;;;;5.05;100.00;95666.50;5025873;28;20053;-50
2021/12/06 03:57:48;;;;;;;43.03;16.05;;;;;;;4.88;100.00;95663.53;5034060;28;20052;-50
2021/12/06 04:00:38;;;;;;;46.53;18.10;;;;;;;4.97;100.00;95662.78;5024560;28;20395;-52
2021/12/06 04:03:28;;;;;;;44.40;16.85;;;;;;;5.17;100.00;95674.16;4973805;28;20052;-53
2021/12/06 04:05:58;;;;;;;57.85;17.05;;;;;;;5.09;100.00;95671.34;5008040;28;20369;-49
2021/12/06 04:08:26;;;;;;;57.85;16.63;;;;;;;4.98;100.00;95674.03;5019440;28;20044;-50
2021/12/06 04:11:15;;;;;;;38.40;15.18;;;;;;;5.02;100.00;95679.84;5019407;28;20057;-52
2021/12/06 04:14:05;;;;;;;43.55;16.10;;;;;;;4.94;100.00;95683.09;5027152;28;20050;-50
2021/12/06 04:16:54;;;;;;;46.00;16.45;;;;;;;4.71;100.00;95677.19;5006825;28;20046;-55
2021/12/06 04:19:42;;;;;;;40.25;16.13;;;;;;;5.14;100.00;95684.03;5022519;28;20131;-55
2021/12/06 04:22:28;;;;;;;35.70;14.70;;;;;;;4.91;100.00;95684.19;5020299;28;20057;-47
2021/12/06 04:25:18;;;;;;;34.63;15.30;;;;;;;4.72;100.00;95686.69;5020870;28;20063;-52
2021/12/06 04:27:53;;;;;;;36.20;15.85;;;;;;;4.40;100.00;95684.94;5017603;28;20042;-48
2021/12/06 04:30:24;;;;;;;35.05;16.23;;;;;;;4.69;100.00;95687.78;5027842;28;20848;-53
2021/12/06 04:32:55;;;;;;;35.42;15.70;;;;;;;4.86;100.00;95699.44;5023094;28;20496;-45
2021/12/06 04:35:24;;;;;;;42.53;16.23;;;;;;;5.07;100.00;95701.19;5025642;28;20081;-52
2021/12/06 04:37:53;;;;;;;52.72;16.63;;;;;;;5.25;100.00;95694.41;5025855;28;20069;-49
2021/12/06 04:40:22;;;;;;;99.85;18.00;;;;;;;4.37;100.00;95694.81;5017916;28;20484;-53
2021/12/06 04:42:52;;;;;;;40.15;16.33;;;;;;;4.98;100.00;95703.59;5024817;28;20571;-55
2021/12/06 04:45:20;;;;;;;43.17;15.68;;;;;;;5.22;100.00;95703.31;5021214;28;20068;-55
2021/12/06 04:47:50;;;;;;;47.97;16.50;;;;;;;5.08;100.00;95703.66;5022397;28;20045;-49
2021/12/06 04:50:24;;;;;;;79.70;18.63;;;;;;;4.57;100.00;95704.44;5022343;28;20100;-54
2021/12/06 04:52:55;;;;;;;45.72;16.92;;;;;;;5.15;100.00;95703.97;5020278;28;20041;-51
2021/12/06 04:55:28;;;;;;;71.43;18.23;;;;;;;4.71;100.00;95705.91;5025034;28;20080;-48
2021/12/06 04:57:57;;;;;;;36.45;15.48;;;;;;;5.08;100.00;95713.28;5023260;28;20072;-52
2021/12/06 05:00:32;;;;;;;53.63;18.27;;;;;;;4.83;100.00;95715.34;5022026;28;20100;-48
2021/12/06 05:03:02;;;;;;;46.95;16.75;;;;;;;4.82;100.00;95716.31;5021088;28;20123;-50
2021/12/06 05:05:34;;;;;;;47.50;16.33;;;;;;;5.05;100.00;95716.16;5029744;28;20507;-49
2021/12/06 05:08:08;;;;;;;46.38;17.20;;;;;;;4.88;100.00;95712.34;5022589;28;20514;-46
2021/12/06 05:10:37;;;;;;;72.40;17.30;;;;;;;4.71;100.00;95722.44;5026944;28;20060;-47
2021/12/06 05:13:05;;;;;;;66.28;18.25;;;;;;;4.70;100.00;95725.97;5024430;28;20071;-46
2021/12/06 05:15:34;;;;;;;50.28;17.95;;;;;;;4.62;100.00;95728.41;5017640;28;20142;-52
2021/12/06 05:18:03;;;;;;;45.10;16.80;;;;;;;4.64;100.00;95723.88;5025843;28;20077;-48
2021/12/06 05:20:34;;;;;;;42.72;17.25;;;;;;;4.68;100.00;95735.75;5025804;28;20064;-49
2021/12/06 05:23:04;;;;;;;42.65;17.15;;;;;;;4.29;100.00;95739.78;5020475;28;20109;-44
2021/12/06 05:25:33;;;;;;;41.38;15.85;;;;;;;3.99;100.00;95754.38;5029725;28;20515;-47
2021/12/06 05:28:01;;;;;;;49.60;17.27;;;;;;;4.33;100.00;95762.09;5025523;28;20502;-46
2021/12/06 05:30:31;;;;;;;55.22;16.40;;;;;;;4.09;100.00;95758.84;5019092;28;20065;-47
2021/12/06 05:33:01;;;;;;;44.72;15.75;;;;;;;3.75;100.00;95766.69;5030382;28;20083;-49
2021/12/06 05:35:30;;;;;;;29.17;14.30;;;;;;;4.02;100.00;95769.75;5022278;28;20061;-46
2021/12/06 05:38:01;;;;;;;26.42;13.10;;;;;;;4.14;100.00;95767.13;5026856;28;20078;-48
2021/12/06 05:40:32;;;;;;;28.63;13.52;;;;;;;3.84;100.00;95776.41;5027943;28;20112;-47
2021/12/06 05:43:01;;;;;;;39.08;15.45;;;;;;;3.84;100.00;95771.19;5028657;28;20141;-47
2021/12/06 05:45:32;;;;;;;36.85;14.93;;;;;;;3.87;100.00;95778.78;5026108;28;20108;-50
2021/12/06 05:48:00;;;;;;;38.20;14.93;;;;;;;3.71;100.00;95781.75;5028482;28;20068;-49
2021/12/06 05:50:29;;;;;;;39.10;15.25;;;;;;;3.69;100.00;95785.44;5024866;28;20065;-50
2021/12/06 05:52:59;;;;;;;40.05;14.98;;;;;;;3.91;100.00;95782.00;5031450;28;20077;-51
2021/12/06 05:55:29;;;;;;;56.35;16.83;;;;;;;3.62;100.00;95794.69;5033521;28;20084;-49
2021/12/06 05:58:00;;;;;;;47.58;15.60;;;;;;;3.68;100.00;95797.66;5026464;28;20091;-47
2021/12/06 06:00:31;;;;;;;54.13;15.88;;;;;;;3.63;100.00;95805.00;5034658;28;20073;-48
2021/12/06 06:03:02;;;;;;;43.60;16.85;;;;;;;3.87;100.00;95810.09;5029200;28;20129;-49
2021/12/06 06:05:32;;;;;;;49.85;16.63;;;;;;;3.84;100.00;95818.16;5031870;28;20058;-48
2021/12/06 06:08:03;;;;;;;45.85;16.15;;;;;;;3.62;100.00;95823.38;5028504;28;20072;-49
2021/12/06 06:10:31;;;;;;;52.83;16.40;;;;;;;3.86;100.00;95816.25;5026275;28;20131;-50
2021/12/06 06:13:01;;;;;;;42.30;16.80;;;;;;;3.93;100.00;95821.84;5028692;28;20400;-47
2021/12/06 06:15:29;;;;;;;42.20;16.00;;;;;;;3.60;100.00;95831.28;5028307;28;20068;-47
2021/12/06 06:17:59;;;;;;;41.33;16.45;;;;;;;3.50;100.00;95835.53;5022534;28;20752;-47
2021/12/06 06:20:31;;;;;;;30.17;12.90;;;;;;;3.42;100.00;95845.72;5029842;28;20756;-47
2021/12/06 06:22:59;;;;;;;33.15;14.65;;;;;;;3.44;100.00;95834.25;5029659;28;20088;-49
2021/12/06 06:25:29;;;;;;;31.60;13.82;;;;;;;3.44;100.00;95855.09;5026551;28;20065;-49
2021/12/06 06:27:58;;;;;;;28.60;13.23;;;;;;;3.42;100.00;95850.94;5036569;28;20049;-49
2021/12/06 06:30:27;;;;;;;33.50;13.85;;;;;;;3.54;100.00;95856.06;5022682;28;20079;-52
2021/12/06 06:32:55;;;;;;;33.17;15.30;;;;;;;3.76;100.00;95867.47;5029214;28;20065;-49
2021/12/06 06:35:24;;;;;;;32.78;15.13;;;;;;;3.73;100.00;95872.91;5024730;28;20072;-51
2021/12/06 06:37:53;;;;;;;36.08;15.25;;;;;;;3.86;100.00;95871.03;5025527;28;20061;-49
2021/12/06 06:40:21;;;;;;;29.75;13.30;;;;;;;3.87;100.00;95869.25;5027846;28;20076;-49
2021/12/06 06:42:51;;;;;;;30.42;13.73;;;;;;;4.07;100.00;95876.38;5030513;28;20061;-49
2021/12/06 06:45:21;;;;;;;34.28;14.68;;;;;;;3.80;100.00;95872.31;5007622;28;20536;-49
2021/12/06 06:47:50;;;;;;;37.35;15.60;;;;;;;3.74;100.00;95879.78;5012609;28;20061;-53
2021/12/06 06:50:21;;;;;;;37.33;14.27;;;;;;;3.94;100.00;95873.03;5029351;28;20080;-49
2021/12/06 06:52:50;;;;;;;34.67;13.55;;;;;;;3.88;100.00;95887.38;5022602;28;20100;-49
2021/12/06 06:55:18;;;;;;;34.47;15.07;;;;;;;3.97;100.00;95891.06;5030314;28;20061;-49
2021/12/06 06:57:48;;;;;;;32.83;14.38;;;;;;;4.03;100.00;95895.81;5026712;28;20096;-52
2021/12/06 07:00:20;;;;;;;36.15;13.82;;;;;;;3.84;100.00;95893.78;5026627;28;20544;-50
2021/12/06 07:02:48;;;;;;;33.83;15.77;;;;;;;4.06;100.00;95892.97;5026557;28;20071;-52
2021/12/06 07:05:17;;;;;;;34.92;14.30;;;;;;;4.03;100.00;95895.81;5026698;28;20065;-49
2021/12/06 07:07:46;;;;;;;36.47;15.75;;;;;;;4.22;100.00;95906.47;5026480;28;20460;-49
2021/12/06 07:10:14;;;;;;;41.28;14.88;;;;;;;4.01;100.00;95905.53;5030921;28;20152;-47
2021/12/06 07:12:46;;;;;;;31.67;14.20;;;;;;;4.13;100.00;95907.22;5023299;28;20535;-50
2021/12/06 07:15:19;;;;;;;32.95;14.93;;;;;;;4.16;100.00;95906.13;5028916;28;20484;-45
2021/12/06 07:17:48;;;;;;;34.97;14.25;;;;;;;3.68;100.00;95916.75;5030203;28;20069;-51
2021/12/06 07:20:16;;;;;;;26.63;13.13;;;;;;;3.85;100.00;95924.13;5024301;28;20477;-49
2021/12/06 07:22:47;;;;;;;26.65;12.48;;;;;;;3.93;100.00;95916.56;5036488;28;20123;-49
2021/12/06 07:25:17;;;;;;;28.67;13.32;;;;;;;3.68;100.00;95916.75;5024472;28;22015;-51
2021/12/06 07:27:45;;;;;;;28.95;13.65;;;;;;;3.71;100.00;95929.56;5023071;28;20065;-47
2021/12/06 07:30:16;;;;;;;29.58;13.77;;;;;;;4.18;100.00;95923.31;5026786;28;20550;-47
2021/12/06 07:32:47;;;;;;;28.15;13.50;;;;;;;4.06;100.00;95929.50;5028347;28;20111;-54
2021/12/06 07:35:16;;;;;;;33.28;14.88;;;;;;;3.52;100.00;95930.94;5019149;28;20083;-50
2021/12/06 07:37:45;;;;;;;33.03;16.05;;;;;;;3.97;100.00;95928.41;5035317;28;20103;-47
2021/12/06 07:40:15;;;;;;;35.67;15.55;;;;;;;3.88;100.00;95926.50;5028232;28;20240;-48
2021/12/06 07:42:44;;;;;;;37.72;15.75;;;;;;;4.21;100.00;95936.13;5027732;28;20077;-52
2021/12/06 07:45:14;;;;;;;33.95;16.25;;;;;;;4.40;100.00;95932.91;5033564;28;20076;-50
2021/12/06 07:47:44;;;;;;;33.72;17.27;;;;;;;4.02;100.00;95931.47;5020217;28;20065;-50
2021/12/06 07:50:15;;;;;;;33.53;15.32;;;;;;;4.17;100.00;95936.50;5029614;28;20069;-50
2021/12/06 07:52:49;;;;;;;39.63;17.63;;;;;;;4.10;100.00;95925.69;5028751;28;20092;-51
2021/12/06 07:55:20;;;;;;;36.40;16.53;;;;;;;4.20;100.00;95941.50;5025528;28;20085;-47
2021/12/06 07:57:49;;;;;;;34.10;16.05;;;;;;;4.07;100.00;95936.38;5024022;28;20084;-49
2021/12/06 08:00:20;;;;;;;29.15;14.75;;;;;;;4.02;100.00;95935.88;5027223;28;20064;-48
2021/12/06 08:02:50;;;;;;;26.63;14.75;;;;;;;3.83;100.00;95940.84;5021230;28;20694;-53
2021/12/06 08:05:32;;;;;;;27.30;14.30;;;;;;;3.68;100.00;95943.66;5029900;28;20080;-55
2021/12/06 08:08:04;;;;;;;26.77;14.05;;;;;;;4.04;100.00;95950.47;5030022;28;20470;-48
2021/12/06 08:10:36;;;;;;;30.75;15.50;;;;;;;3.50;100.00;95951.06;5023145;28;20087;-52
2021/12/06 08:13:05;;;;;;;27.17;13.73;;;;;;;3.21;100.00;95950.63;5024345;28;20076;-49
2021/12/06 08:15:34;;;;;;;25.65;13.43;;;;;;;3.39;100.00;95960.63;5023757;28;20065;-49
2021/12/06 08:18:04;;;;;;;26.02;13.80;;;;;;;3.66;100.00;95960.38;5019724;28;20061;-50
2021/12/06 08:20:33;;;;;;;23.30;12.43;;;;;;;3.68;100.00;95961.91;5025903;28;20072;-47
2021/12/06 08:23:02;;;;;;;26.25;12.98;;;;;;;3.76;100.00;95974.38;5024622;28;20077;-51
2021/12/06 08:25:30;;;;;;;27.25;14.35;;;;;;;3.84;100.00;95974.63;5027834;28;20084;-50
2021/12/06 08:27:59;;;;;;;24.55;13.70;;;;;;;3.38;100.00;95977.22;5029208;28;20067;-52
2021/12/06 08:30:27;;;;;;;25.27;13.30;;;;;;;3.50;100.00;95977.13;5021663;28;20750;-53
2021/12/06 08:32:58;;;;;;;24.27;12.98;;;;;;;3.49;100.00;95979.84;5026816;28;20081;-51
2021/12/06 08:35:39;;;;;;;20.55;11.73;;;;;;;3.50;100.00;95969.31;5021761;28;20665;-47
2021/12/06 08:38:10;;;;;;;24.55;13.40;;;;;;;3.47;100.00;95971.31;5020863;28;20076;-48
2021/12/06 08:40:40;;;;;;;23.08;12.52;;;;;;;3.47;100.00;95985.16;5032666;28;20076;-51
2021/12/06 08:43:08;;;;;;;22.20;12.18;;;;;;;3.56;100.00;95981.06;5024920;28;20081;-49
2021/12/06 08:45:37;;;;;;;22.88;12.65;;;;;;;3.47;100.00;95987.78;5021283;28;20084;-49
2021/12/06 08:48:06;;;;;;;26.10;14.25;;;;;;;3.78;100.00;95988.94;5025138;28;20073;-52
2021/12/06 08:50:35;;;;;;;24.70;13.93;;;;;;;3.90;100.00;95991.59;5025200;28;20073;-48
2021/12/06 08:53:04;;;;;;;26.48;14.40;;;;;;;4.11;100.00;95987.38;5021794;28;20080;-48
2021/12/06 08:55:32;;;;;;;26.08;13.50;;;;;;;3.63;100.00;95994.47;5029659;28;20077;-54
2021/12/06 08:58:02;;;;;;;24.08;13.02;;;;;;;3.36;100.00;95997.34;5023868;28;20072;-46
2021/12/06 09:00:33;;;;;;;25.83;14.90;;;;;;;3.67;100.00;95998.53;5024773;28;20069;-51
2021/12/06 09:03:02;;;;;;;23.08;13.00;;;;;;;3.95;100.00;96003.34;5032919;28;20076;-46
2021/12/06 09:05:34;;;;;;;24.63;12.05;;;;;;;3.98;100.00;96003.09;5019241;28;20155;-50
2021/12/06 09:08:05;;;;;;;26.50;13.48;;;;;;;3.66;100.00;96013.34;5028387;28;20064;-52
2021/12/06 09:10:33;;;;;;;26.10;15.02;;;;;;;3.94;100.00;96006.91;5022234;28;20065;-49
2021/12/06 09:13:03;;;;;;;26.85;14.40;;;;;;;3.98;100.00;96016.16;5021686;28;20116;-50
2021/12/06 09:15:31;;;;;;;23.52;12.27;;;;;;;4.13;100.00;96014.19;5025805;28;20076;-54
2021/12/06 09:18:01;;;;;;;24.20;13.18;;;;;;;4.15;100.00;96011.44;5025289;28;20065;-54
2021/12/06 09:20:33;;;;;;;24.00;13.93;;;;;;;4.27;100.00;96002.69;5023343;28;20076;-54
2021/12/06 09:23:01;;;;;;;24.33;13.40;;;;;;;3.86;100.00;96018.88;5025170;28;20087;-52
2021/12/06 09:25:34;;;;;;;24.50;13.63;;;;;;;4.01;100.00;96015.09;5023577;28;20083;-53
2021/12/06 09:28:03;;;;;;;27.10;14.13;;;;;;;4.27;100.00;96021.78;5019812;28;20077;-54
2021/12/06 09:30:34;;;;;;;24.92;13.57;;;;;;;4.26;100.00;96021.88;5020036;28;20069;-55
2021/12/06 09:33:05;;;;;;;27.65;14.93;;;;;;;4.15;100.00;96025.31;5020022;28;20702;-51
2021/12/06 09:35:36;;;;;;;28.70;15.05;;;;;;;4.42;100.00;96016.34;5025466;28;20481;-55
2021/12/06 09:38:06;;;;;;;28.27;15.25;;;;;;;4.27;100.00;96028.78;5028301;28;20102;-51
2021/12/06 09:40:37;;;;;;;25.85;14.43;;;;;;;4.43;100.00;96025.81;5024720;28;20088;-53
2021/12/06 09:43:08;;;;;;;27.00;14.38;;;;;;;4.40;100.00;96034.72;5024773;28;20527;-49
2021/12/06 09:45:37;;;;;;;27.33;14.63;;;;;;;4.40;100.00;96037.31;5027715;28;20072;-47
2021/12/06 09:48:06;;;;;;;28.10;16.58;;;;;;;4.21;100.00;96026.63;5021705;28;20061;-51
2021/12/06 09:50:38;;;;;;;26.17;15.57;;;;;;;4.36;100.00;96030.69;5030366;28;20073;-50
2021/12/06 09:53:09;;;;;;;28.90;15.38;;;;;;;4.26;100.00;96034.94;5021488;28;20081;-52
2021/12/06 09:55:38;;;;;;;;;;;;;;;4.41;100.00;96025.97;5023823;28;20571;-49
2021/12/06 09:58:07;;;;;;;25.83;13.65;;;;;;;4.15;100.00;96027.09;5028475;28;20387;-49
2021/12/06 10:00:40;;;;;;;28.45;15.25;;;;;;;4.20;100.00;96031.03;5015955;28;20643;-47
2021/12/06 10:03:09;;;;;;;26.98;14.80;;;;;;;4.39;100.00;96033.06;5019007;28;20065;-46
2021/12/06 10:05:38;;;;;;;30.80;16.20;;;;;;;4.56;100.00;96029.16;5025100;28;20077;-47
2021/12/06 10:08:07;;;;;;;29.10;14.82;;;;;;;4.54;100.00;96031.06;5018624;28;20081;-49
2021/12/06 10:10:36;;;;;;;30.83;15.98;;;;;;;4.56;100.00;96036.16;5025848;28;20083;-51
2021/12/06 10:13:06;;;;;;;29.48;15.68;;;;;;;4.97;100.00;96039.00;5029500;28;20072;-51
2021/12/06 10:15:36;;;;;;;31.23;17.05;;;;;;;5.05;100.00;96030.56;5020196;28;20475;-51
2021/12/06 10:18:05;;;;;;;30.02;16.23;;;;;;;4.82;100.00;96032.38;5026570;28;20061;-53
2021/12/06 10:20:34;;;;;;;31.70;16.92;;;;;;;5.12;100.00;96023.06;5028873;28;20515;-53
2021/12/06 10:23:02;;;;;;;31.02;16.77;;;;;;;5.34;100.00;96020.41;5018434;28;20073;-47
2021/12/06 10:25:37;;;;;;;32.25;16.98;;;;;;;4.56;100.00;96015.28;5036688;28;20088;-50
2021/12/06 10:28:15;;;;;;;37.05;18.23;;;;;;;4.46;100.00;96015.16;5025917;28;20069;-50
2021/12/06 10:30:46;;;;;;;36.08;18.90;;;;;;;5.09;100.00;96018.06;5030324;28;20069;-53
2021/12/06 10:33:14;;;;;;;;;;;;;;;5.34;100.00;96027.41;5030377;28;20095;-56
2021/12/06 10:35:46;;;;;;;32.67;17.15;;;;;;;4.91;100.00;96020.34;5025583;28;19959;-55
2021/12/06 10:38:19;;;;;;;34.05;17.50;;;;;;;4.91;100.00;96015.13;5024891;28;20091;-52
2021/12/06 10:40:48;;;;;;;35.55;17.60;;;;;;;5.31;100.00;96018.03;5029459;28;20634;-53
2021/12/06 10:43:18;;;;;;;32.45;16.40;;;;;;;5.18;100.00;96019.97;5021054;28;20487;-48
2021/12/06 10:45:48;;;;;;;29.98;16.58;;;;;;;5.25;100.00;96018.53;5029916;28;20076;-49
2021/12/06 10:48:18;;;;;;;33.83;18.23;;;;;;;5.48;100.00;96016.69;5031690;28;20060;-48
2021/12/06 10:50:51;;;;;;;32.45;17.40;;;;;;;5.46;100.00;96014.16;5023817;28;20503;-51
2021/12/06 10:53:22;;;;;;;32.08;17.13;;;;;;;5.49;100.00;96023.56;5030811;28;20101;-49
2021/12/06 10:55:54;;;;;;;37.30;19.95;;;;;;;5.87;100.00;96016.97;5029268;28;20107;-49
2021/12/06 10:58:27;;;;;;;35.78;19.60;;;;;;;5.15;100.00;96020.19;5030684;28;20081;-50
2021/12/06 11:00:57;;;;;;;34.47;17.42;;;;;;;5.16;100.00;96020.09;5028237;28;20631;-53
2021/12/06 11:03:29;;;;;;;37.45;19.00;;;;;;;5.15;100.00;96018.41;5030333;28;20064;-53
2021/12/06 11:06:02;;;;;;;36.47;18.02;;;;;;;5.29;100.00;96014.69;5027827;28;20064;-54
2021/12/06 11:08:34;;;;;;;41.67;20.75;;;;;;;5.56;100.00;96018.66;5029592;28;20073;-48
2021/12/06 11:11:05;;;;;;;39.35;21.00;;;;;;;5.40;100.00;96014.69;5027729;28;20065;-44
2021/12/06 11:13:37;;;;;;;37.20;19.52;;;;;;;5.17;100.00;96011.28;5029839;28;20488;-54
2021/12/06 11:16:12;;;;;;;38.05;18.13;;;;;;;5.13;100.00;96016.91;5025420;28;20071;-53
2021/12/06 11:18:48;;;;;;;37.22;19.02;;;;;;;5.17;100.00;96020.94;5023747;28;20080;-52
2021/12/06 11:21:33;;;;;;;35.25;19.58;;;;;;;4.85;100.00;96020.84;5028207;28;20061;-55
2021/12/06 11:24:26;;;;;;;36.40;18.50;;;;;;;5.54;100.00;96017.94;5025066;28;20075;-50
2021/12/06 11:26:58;;;;;;;36.60;18.25;;;;;;;5.66;100.00;96023.03;5026669;28;20111;-48
2021/12/06 11:29:30;;;;;;;35.97;19.30;;;;;;;5.94;100.00;96016.38;5016911;28;20079;-49
2021/12/06 11:32:03;;;;;;;34.90;20.23;;;;;;;5.77;100.00;96018.69;5029061;28;20539;-52
2021/12/06 11:34:34;;;;;;;33.22;17.58;;;;;;;5.17;100.00;96023.53;5030104;28;20073;-50
2021/12/06 11:37:04;;;;;;;43.05;22.73;;;;;;;6.07;100.00;96015.38;5023003;28;20073;-48
2021/12/06 11:39:32;;;;;;;34.53;19.02;;;;;;;5.76;100.00;96015.25;5034419;28;20076;-47
2021/12/06 11:42:00;;;;;;;34.42;18.35;;;;;;;5.61;100.00;96024.34;5027146;28;20079;-50
2021/12/06 11:44:34;;;;;;;33.17;18.42;;;;;;;5.45;100.00;96019.53;5030687;28;20077;-52
2021/12/06 11:47:08;;;;;;;33.92;17.65;;;;;;;6.18;100.00;96012.69;5034875;28;20219;-51